sensor_id;sensor_type;location;lat;lon;timestamp;P1;durP1;ratioP1;P2;durP2;ratioP2
8663;SDS011;4369;47.842;13.096;2023-04-24T00:02:02;4.10;;;3.70;;
8663;SDS011;4369;47.842;13.096;2023-04-24T00:04:29;3.93;;;3.60;;
8663;SDS011;4369;47.842;13.096;2023-04-24T00:06:56;3.93;;;3.50;;
8663;SDS011;4369;47.842;13.096;2023-04-24T00:09:25;4.13;;;3.30;;
8663;SDS011;4369;47.842;13.096;2023-04-24T00:11:52;3.67;;;3.40;;
8663;SDS011;4369;47.842;13.096;2023-04-24T00:14:19;3.80;;;3.50;;
8663;SDS011;4369;47.842;13.096;2023-04-24T00:16:46;3.53;;;3.23;;
8663;SDS011;4369;47.842;13.096;2023-04-24T00:19:14;4.17;;;3.30;;
8663;SDS011;4369;47.842;13.096;2023-04-24T00:21:41;3.87;;;3.20;;
8663;SDS011;4369;47.842;13.096;2023-04-24T00:24:08;3.93;;;3.00;;
8663;SDS011;4369;47.842;13.096;2023-04-24T00:26:35;4.47;;;3.23;;
8663;SDS011;4369;47.842;13.096;2023-04-24T00:29:02;3.93;;;3.50;;
8663;SDS011;4369;47.842;13.096;2023-04-24T00:31:29;3.63;;;3.33;;
8663;SDS011;4369;47.842;13.096;2023-04-24T00:33:57;3.43;;;3.13;;
8663;SDS011;4369;47.842;13.096;2023-04-24T00:36:25;2.90;;;2.70;;
8663;SDS011;4369;47.842;13.096;2023-04-24T00:38:53;2.50;;;2.30;;
8663;SDS011;4369;47.842;13.096;2023-04-24T00:41:20;2.27;;;2.07;;
8663;SDS011;4369;47.842;13.096;2023-04-24T00:43:47;2.60;;;2.20;;
8663;SDS011;4369;47.842;13.096;2023-04-24T00:46:14;2.77;;;2.33;;
8663;SDS011;4369;47.842;13.096;2023-04-24T00:48:42;2.30;;;2.10;;
8663;SDS011;4369;47.842;13.096;2023-04-24T00:51:10;2.20;;;1.93;;
8663;SDS011;4369;47.842;13.096;2023-04-24T00:53:38;2.13;;;2.00;;
8663;SDS011;4369;47.842;13.096;2023-04-24T00:56:05;1.97;;;1.87;;
8663;SDS011;4369;47.842;13.096;2023-04-24T00:58:32;3.77;;;1.83;;
8663;SDS011;4369;47.842;13.096;2023-04-24T01:00:59;1.97;;;1.70;;
8663;SDS011;4369;47.842;13.096;2023-04-24T01:03:28;1.87;;;1.77;;
8663;SDS011;4369;47.842;13.096;2023-04-24T01:05:56;1.53;;;1.43;;
8663;SDS011;4369;47.842;13.096;2023-04-24T01:08:24;1.53;;;1.33;;
8663;SDS011;4369;47.842;13.096;2023-04-24T01:10:54;1.30;;;1.20;;
8663;SDS011;4369;47.842;13.096;2023-04-24T01:13:22;3.33;;;1.67;;
8663;SDS011;4369;47.842;13.096;2023-04-24T01:15:50;1.40;;;1.30;;
8663;SDS011;4369;47.842;13.096;2023-04-24T01:18:17;2.70;;;1.30;;
8663;SDS011;4369;47.842;13.096;2023-04-24T01:20:44;2.37;;;1.30;;
8663;SDS011;4369;47.842;13.096;2023-04-24T01:23:13;1.23;;;1.13;;
8663;SDS011;4369;47.842;13.096;2023-04-24T01:25:40;1.17;;;1.10;;
8663;SDS011;4369;47.842;13.096;2023-04-24T01:28:07;2.10;;;1.10;;
8663;SDS011;4369;47.842;13.096;2023-04-24T01:30:34;1.40;;;1.30;;
8663;SDS011;4369;47.842;13.096;2023-04-24T01:33:01;2.27;;;1.40;;
8663;SDS011;4369;47.842;13.096;2023-04-24T01:35:29;2.00;;;1.50;;
8663;SDS011;4369;47.842;13.096;2023-04-24T01:37:56;2.03;;;1.23;;
8663;SDS011;4369;47.842;13.096;2023-04-24T01:40:24;1.83;;;1.60;;
8663;SDS011;4369;47.842;13.096;2023-04-24T01:42:51;2.23;;;1.60;;
8663;SDS011;4369;47.842;13.096;2023-04-24T01:45:18;3.03;;;1.53;;
8663;SDS011;4369;47.842;13.096;2023-04-24T01:47:45;2.47;;;1.60;;
8663;SDS011;4369;47.842;13.096;2023-04-24T01:50:14;1.60;;;1.50;;
8663;SDS011;4369;47.842;13.096;2023-04-24T01:52:41;1.93;;;1.50;;
8663;SDS011;4369;47.842;13.096;2023-04-24T01:55:08;1.87;;;1.77;;
8663;SDS011;4369;47.842;13.096;2023-04-24T01:57:37;5.90;;;1.47;;
8663;SDS011;4369;47.842;13.096;2023-04-24T02:00:04;1.73;;;1.57;;
8663;SDS011;4369;47.842;13.096;2023-04-24T02:02:32;3.67;;;1.90;;
8663;SDS011;4369;47.842;13.096;2023-04-24T02:04:59;2.23;;;1.73;;
8663;SDS011;4369;47.842;13.096;2023-04-24T02:07:26;2.03;;;1.80;;
8663;SDS011;4369;47.842;13.096;2023-04-24T02:09:53;2.20;;;2.00;;
8663;SDS011;4369;47.842;13.096;2023-04-24T02:12:20;2.10;;;1.90;;
8663;SDS011;4369;47.842;13.096;2023-04-24T02:14:48;1.77;;;1.67;;
8663;SDS011;4369;47.842;13.096;2023-04-24T02:17:15;2.37;;;1.20;;
8663;SDS011;4369;47.842;13.096;2023-04-24T02:19:44;1.40;;;1.17;;
8663;SDS011;4369;47.842;13.096;2023-04-24T02:22:11;1.70;;;1.47;;
8663;SDS011;4369;47.842;13.096;2023-04-24T02:24:38;1.47;;;1.00;;
8663;SDS011;4369;47.842;13.096;2023-04-24T02:27:05;1.90;;;0.90;;
8663;SDS011;4369;47.842;13.096;2023-04-24T02:29:32;0.90;;;0.90;;
8663;SDS011;4369;47.842;13.096;2023-04-24T02:32:00;0.83;;;0.83;;
8663;SDS011;4369;47.842;13.096;2023-04-24T02:34:27;0.97;;;0.97;;
8663;SDS011;4369;47.842;13.096;2023-04-24T02:36:54;0.90;;;0.90;;
8663;SDS011;4369;47.842;13.096;2023-04-24T02:39:20;2.07;;;0.80;;
8663;SDS011;4369;47.842;13.096;2023-04-24T02:41:47;1.70;;;0.80;;
8663;SDS011;4369;47.842;13.096;2023-04-24T02:44:14;0.73;;;0.73;;
8663;SDS011;4369;47.842;13.096;2023-04-24T02:46:42;1.70;;;1.00;;
8663;SDS011;4369;47.842;13.096;2023-04-24T02:49:11;1.13;;;0.80;;
8663;SDS011;4369;47.842;13.096;2023-04-24T02:51:38;1.40;;;1.13;;
8663;SDS011;4369;47.842;13.096;2023-04-24T02:54:06;1.10;;;1.00;;
8663;SDS011;4369;47.842;13.096;2023-04-24T02:56:34;1.20;;;1.03;;
8663;SDS011;4369;47.842;13.096;2023-04-24T02:59:00;0.80;;;0.80;;
8663;SDS011;4369;47.842;13.096;2023-04-24T03:01:27;1.10;;;1.00;;
8663;SDS011;4369;47.842;13.096;2023-04-24T03:03:54;1.07;;;1.00;;
8663;SDS011;4369;47.842;13.096;2023-04-24T03:06:23;1.57;;;1.47;;
8663;SDS011;4369;47.842;13.096;2023-04-24T03:08:49;0.80;;;0.80;;
8663;SDS011;4369;47.842;13.096;2023-04-24T03:11:16;1.98;;;1.77;;
8663;SDS011;4369;47.842;13.096;2023-04-24T03:13:43;1.93;;;1.83;;
8663;SDS011;4369;47.842;13.096;2023-04-24T03:16:10;4.13;;;2.37;;
8663;SDS011;4369;47.842;13.096;2023-04-24T03:18:37;2.80;;;2.60;;
8663;SDS011;4369;47.842;13.096;2023-04-24T03:21:04;3.63;;;2.60;;
8663;SDS011;4369;47.842;13.096;2023-04-24T03:23:32;3.70;;;2.10;;
8663;SDS011;4369;47.842;13.096;2023-04-24T03:25:59;2.93;;;1.70;;
8663;SDS011;4369;47.842;13.096;2023-04-24T03:28:27;2.97;;;1.20;;
8663;SDS011;4369;47.842;13.096;2023-04-24T03:30:54;1.37;;;1.13;;
8663;SDS011;4369;47.842;13.096;2023-04-24T03:33:20;1.43;;;1.00;;
8663;SDS011;4369;47.842;13.096;2023-04-24T03:35:47;1.80;;;0.80;;
8663;SDS011;4369;47.842;13.096;2023-04-24T03:38:14;0.73;;;0.73;;
8663;SDS011;4369;47.842;13.096;2023-04-24T03:40:42;1.17;;;1.07;;
8663;SDS011;4369;47.842;13.096;2023-04-24T03:43:09;0.80;;;0.80;;
8663;SDS011;4369;47.842;13.096;2023-04-24T03:45:36;0.80;;;0.80;;
8663;SDS011;4369;47.842;13.096;2023-04-24T03:48:03;1.10;;;1.00;;
8663;SDS011;4369;47.842;13.096;2023-04-24T03:50:30;1.00;;;0.90;;
8663;SDS011;4369;47.842;13.096;2023-04-24T03:52:57;1.30;;;0.90;;
8663;SDS011;4369;47.842;13.096;2023-04-24T03:55:24;1.13;;;0.80;;
8663;SDS011;4369;47.842;13.096;2023-04-24T03:57:52;0.83;;;0.83;;
8663;SDS011;4369;47.842;13.096;2023-04-24T04:00:19;1.97;;;1.17;;
8663;SDS011;4369;47.842;13.096;2023-04-24T04:02:46;0.97;;;0.97;;
8663;SDS011;4369;47.842;13.096;2023-04-24T04:05:13;0.80;;;0.80;;
8663;SDS011;4369;47.842;13.096;2023-04-24T04:07:40;1.50;;;1.00;;
8663;SDS011;4369;47.842;13.096;2023-04-24T04:10:07;0.90;;;0.90;;
8663;SDS011;4369;47.842;13.096;2023-04-24T04:12:34;1.17;;;1.00;;
8663;SDS011;4369;47.842;13.096;2023-04-24T04:15:02;2.47;;;1.33;;
8663;SDS011;4369;47.842;13.096;2023-04-24T04:17:31;0.87;;;0.87;;
8663;SDS011;4369;47.842;13.096;2023-04-24T04:19:57;1.27;;;0.90;;
8663;SDS011;4369;47.842;13.096;2023-04-24T04:22:25;1.63;;;1.13;;
8663;SDS011;4369;47.842;13.096;2023-04-24T04:24:53;1.93;;;1.50;;
8663;SDS011;4369;47.842;13.096;2023-04-24T04:27:20;1.00;;;1.00;;
8663;SDS011;4369;47.842;13.096;2023-04-24T04:29:47;1.47;;;1.00;;
8663;SDS011;4369;47.842;13.096;2023-04-24T04:32:15;1.23;;;0.90;;
8663;SDS011;4369;47.842;13.096;2023-04-24T04:34:42;2.37;;;1.10;;
8663;SDS011;4369;47.842;13.096;2023-04-24T04:37:10;0.70;;;0.60;;
8663;SDS011;4369;47.842;13.096;2023-04-24T04:39:37;0.80;;;0.70;;
8663;SDS011;4369;47.842;13.096;2023-04-24T04:42:04;1.33;;;1.00;;
8663;SDS011;4369;47.842;13.096;2023-04-24T04:44:31;1.03;;;0.90;;
8663;SDS011;4369;47.842;13.096;2023-04-24T04:47:00;1.93;;;1.10;;
8663;SDS011;4369;47.842;13.096;2023-04-24T04:49:31;1.20;;;0.73;;
8663;SDS011;4369;47.842;13.096;2023-04-24T04:51:59;2.37;;;0.70;;
8663;SDS011;4369;47.842;13.096;2023-04-24T04:54:26;0.60;;;0.60;;
8663;SDS011;4369;47.842;13.096;2023-04-24T04:56:53;0.70;;;0.70;;
8663;SDS011;4369;47.842;13.096;2023-04-24T04:59:20;2.00;;;0.67;;
8663;SDS011;4369;47.842;13.096;2023-04-24T05:01:47;0.60;;;0.60;;
8663;SDS011;4369;47.842;13.096;2023-04-24T05:04:14;1.17;;;0.87;;
8663;SDS011;4369;47.842;13.096;2023-04-24T05:06:42;2.07;;;0.97;;
8663;SDS011;4369;47.842;13.096;2023-04-24T05:09:09;2.90;;;0.90;;
8663;SDS011;4369;47.842;13.096;2023-04-24T05:11:36;2.37;;;1.10;;
8663;SDS011;4369;47.842;13.096;2023-04-24T05:14:03;1.90;;;1.00;;
8663;SDS011;4369;47.842;13.096;2023-04-24T05:16:30;2.67;;;1.60;;
8663;SDS011;4369;47.842;13.096;2023-04-24T05:18:56;2.77;;;1.30;;
8663;SDS011;4369;47.842;13.096;2023-04-24T05:21:23;2.23;;;1.30;;
8663;SDS011;4369;47.842;13.096;2023-04-24T05:23:52;2.00;;;1.10;;
8663;SDS011;4369;47.842;13.096;2023-04-24T05:26:19;2.27;;;1.77;;
8663;SDS011;4369;47.842;13.096;2023-04-24T05:28:47;1.10;;;1.10;;
8663;SDS011;4369;47.842;13.096;2023-04-24T05:31:14;2.70;;;2.33;;
8663;SDS011;4369;47.842;13.096;2023-04-24T05:33:42;2.23;;;1.27;;
8663;SDS011;4369;47.842;13.096;2023-04-24T05:36:09;2.70;;;1.47;;
8663;SDS011;4369;47.842;13.096;2023-04-24T05:38:36;3.77;;;2.30;;
8663;SDS011;4369;47.842;13.096;2023-04-24T05:41:04;5.77;;;3.70;;
8663;SDS011;4369;47.842;13.096;2023-04-24T05:43:31;3.37;;;2.70;;
8663;SDS011;4369;47.842;13.096;2023-04-24T05:45:58;2.67;;;1.77;;
8663;SDS011;4369;47.842;13.096;2023-04-24T05:48:25;3.53;;;2.40;;
8663;SDS011;4369;47.842;13.096;2023-04-24T05:50:52;4.37;;;2.40;;
8663;SDS011;4369;47.842;13.096;2023-04-24T05:53:19;5.07;;;2.13;;
8663;SDS011;4369;47.842;13.096;2023-04-24T05:55:46;1.97;;;1.77;;
8663;SDS011;4369;47.842;13.096;2023-04-24T05:58:15;2.80;;;1.33;;
8663;SDS011;4369;47.842;13.096;2023-04-24T06:00:42;1.43;;;1.33;;
8663;SDS011;4369;47.842;13.096;2023-04-24T06:03:11;1.90;;;1.70;;
8663;SDS011;4369;47.842;13.096;2023-04-24T06:05:38;1.17;;;0.97;;
8663;SDS011;4369;47.842;13.096;2023-04-24T06:08:05;2.30;;;0.97;;
8663;SDS011;4369;47.842;13.096;2023-04-24T06:10:32;1.27;;;1.17;;
8663;SDS011;4369;47.842;13.096;2023-04-24T06:12:59;3.27;;;1.70;;
8663;SDS011;4369;47.842;13.096;2023-04-24T06:15:29;3.10;;;1.30;;
8663;SDS011;4369;47.842;13.096;2023-04-24T06:17:56;3.33;;;1.73;;
8663;SDS011;4369;47.842;13.096;2023-04-24T06:20:23;2.47;;;1.13;;
8663;SDS011;4369;47.842;13.096;2023-04-24T06:22:50;0.93;;;0.93;;
8663;SDS011;4369;47.842;13.096;2023-04-24T06:25:17;2.60;;;1.80;;
8663;SDS011;4369;47.842;13.096;2023-04-24T06:27:45;4.43;;;1.60;;
8663;SDS011;4369;47.842;13.096;2023-04-24T06:30:12;3.23;;;1.53;;
8663;SDS011;4369;47.842;13.096;2023-04-24T06:32:40;1.70;;;1.60;;
8663;SDS011;4369;47.842;13.096;2023-04-24T06:35:07;1.67;;;1.30;;
8663;SDS011;4369;47.842;13.096;2023-04-24T06:37:35;0.97;;;0.70;;
8663;SDS011;4369;47.842;13.096;2023-04-24T06:40:02;3.70;;;1.50;;
8663;SDS011;4369;47.842;13.096;2023-04-24T06:42:29;2.10;;;1.03;;
8663;SDS011;4369;47.842;13.096;2023-04-24T06:44:56;1.53;;;1.00;;
8663;SDS011;4369;47.842;13.096;2023-04-24T06:47:23;0.83;;;0.80;;
8663;SDS011;4369;47.842;13.096;2023-04-24T06:49:51;1.77;;;0.67;;
8663;SDS011;4369;47.842;13.096;2023-04-24T06:52:20;3.67;;;0.90;;
8663;SDS011;4369;47.842;13.096;2023-04-24T06:54:47;1.43;;;0.70;;
8663;SDS011;4369;47.842;13.096;2023-04-24T06:57:13;0.50;;;0.50;;
8663;SDS011;4369;47.842;13.096;2023-04-24T06:59:41;0.40;;;0.40;;
8663;SDS011;4369;47.842;13.096;2023-04-24T07:02:08;2.47;;;1.10;;
8663;SDS011;4369;47.842;13.096;2023-04-24T07:04:35;1.10;;;0.83;;
8663;SDS011;4369;47.842;13.096;2023-04-24T07:07:03;2.30;;;1.30;;
8663;SDS011;4369;47.842;13.096;2023-04-24T07:09:31;1.33;;;0.73;;
8663;SDS011;4369;47.842;13.096;2023-04-24T07:12:00;0.30;;;0.30;;
8663;SDS011;4369;47.842;13.096;2023-04-24T07:14:27;0.70;;;0.60;;
8663;SDS011;4369;47.842;13.096;2023-04-24T07:16:54;2.33;;;0.80;;
8663;SDS011;4369;47.842;13.096;2023-04-24T07:19:22;1.03;;;0.57;;
8663;SDS011;4369;47.842;13.096;2023-04-24T07:21:48;0.70;;;0.70;;
8663;SDS011;4369;47.842;13.096;2023-04-24T07:24:17;0.50;;;0.50;;
8663;SDS011;4369;47.842;13.096;2023-04-24T07:26:43;2.83;;;0.77;;
8663;SDS011;4369;47.842;13.096;2023-04-24T07:29:11;0.87;;;0.50;;
8663;SDS011;4369;47.842;13.096;2023-04-24T07:31:38;0.43;;;0.43;;
8663;SDS011;4369;47.842;13.096;2023-04-24T07:34:06;1.90;;;0.60;;
8663;SDS011;4369;47.842;13.096;2023-04-24T07:36:33;6.00;;;2.17;;
8663;SDS011;4369;47.842;13.096;2023-04-24T07:38:59;4.00;;;1.30;;
8663;SDS011;4369;47.842;13.096;2023-04-24T07:41:28;1.27;;;0.33;;
8663;SDS011;4369;47.842;13.096;2023-04-24T07:43:54;0.53;;;0.50;;
8663;SDS011;4369;47.842;13.096;2023-04-24T07:46:21;0.60;;;0.50;;
8663;SDS011;4369;47.842;13.096;2023-04-24T07:48:49;3.63;;;1.30;;
8663;SDS011;4369;47.842;13.096;2023-04-24T07:51:16;2.87;;;1.20;;
8663;SDS011;4369;47.842;13.096;2023-04-24T07:53:44;1.13;;;0.80;;
8663;SDS011;4369;47.842;13.096;2023-04-24T07:56:10;2.40;;;1.13;;
8663;SDS011;4369;47.842;13.096;2023-04-24T07:58:39;2.43;;;1.00;;
8663;SDS011;4369;47.842;13.096;2023-04-24T08:01:06;0.77;;;0.70;;
8663;SDS011;4369;47.842;13.096;2023-04-24T08:03:33;3.03;;;1.53;;
8663;SDS011;4369;47.842;13.096;2023-04-24T08:06:00;1.10;;;0.60;;
8663;SDS011;4369;47.842;13.096;2023-04-24T08:08:27;3.10;;;0.70;;
8663;SDS011;4369;47.842;13.096;2023-04-24T08:10:54;1.40;;;0.80;;
8663;SDS011;4369;47.842;13.096;2023-04-24T08:13:21;1.37;;;1.20;;
8663;SDS011;4369;47.842;13.096;2023-04-24T08:15:49;1.07;;;0.97;;
8663;SDS011;4369;47.842;13.096;2023-04-24T08:18:16;1.67;;;1.30;;
8663;SDS011;4369;47.842;13.096;2023-04-24T08:20:43;1.10;;;1.10;;
8663;SDS011;4369;47.842;13.096;2023-04-24T08:23:11;2.07;;;1.17;;
8663;SDS011;4369;47.842;13.096;2023-04-24T08:25:38;1.57;;;1.10;;
8663;SDS011;4369;47.842;13.096;2023-04-24T08:28:05;1.27;;;0.83;;
8663;SDS011;4369;47.842;13.096;2023-04-24T08:30:34;1.17;;;0.97;;
8663;SDS011;4369;47.842;13.096;2023-04-24T08:33:02;1.63;;;0.73;;
8663;SDS011;4369;47.842;13.096;2023-04-24T08:35:29;2.70;;;1.40;;
8663;SDS011;4369;47.842;13.096;2023-04-24T08:37:56;1.30;;;0.80;;
8663;SDS011;4369;47.842;13.096;2023-04-24T08:40:28;1.73;;;0.97;;
8663;SDS011;4369;47.842;13.096;2023-04-24T08:42:55;2.37;;;1.27;;
8663;SDS011;4369;47.842;13.096;2023-04-24T08:45:23;1.37;;;1.23;;
8663;SDS011;4369;47.842;13.096;2023-04-24T08:47:51;2.10;;;1.17;;
8663;SDS011;4369;47.842;13.096;2023-04-24T08:50:21;3.33;;;1.23;;
8663;SDS011;4369;47.842;13.096;2023-04-24T08:52:49;1.10;;;0.90;;
8663;SDS011;4369;47.842;13.096;2023-04-24T08:55:18;0.80;;;0.70;;
8663;SDS011;4369;47.842;13.096;2023-04-24T08:57:45;1.23;;;1.13;;
8663;SDS011;4369;47.842;13.096;2023-04-24T09:00:16;1.00;;;0.90;;
8663;SDS011;4369;47.842;13.096;2023-04-24T09:02:44;1.03;;;0.90;;
8663;SDS011;4369;47.842;13.096;2023-04-24T09:05:13;1.60;;;0.87;;
8663;SDS011;4369;47.842;13.096;2023-04-24T09:07:44;2.83;;;1.00;;
8663;SDS011;4369;47.842;13.096;2023-04-24T09:10:15;1.57;;;1.10;;
8663;SDS011;4369;47.842;13.096;2023-04-24T09:12:42;1.67;;;1.17;;
8663;SDS011;4369;47.842;13.096;2023-04-24T09:15:10;0.57;;;0.57;;
8663;SDS011;4369;47.842;13.096;2023-04-24T09:17:38;1.93;;;1.10;;
8663;SDS011;4369;47.842;13.096;2023-04-24T09:20:05;0.73;;;0.73;;
8663;SDS011;4369;47.842;13.096;2023-04-24T09:22:33;1.37;;;0.80;;
8663;SDS011;4369;47.842;13.096;2023-04-24T09:25:03;1.80;;;1.00;;
8663;SDS011;4369;47.842;13.096;2023-04-24T09:27:31;1.80;;;0.63;;
8663;SDS011;4369;47.842;13.096;2023-04-24T09:29:59;2.60;;;0.87;;
8663;SDS011;4369;47.842;13.096;2023-04-24T09:32:26;0.40;;;0.40;;
8663;SDS011;4369;47.842;13.096;2023-04-24T09:35:08;0.50;;;0.50;;
8663;SDS011;4369;47.842;13.096;2023-04-24T09:37:37;1.20;;;0.70;;
8663;SDS011;4369;47.842;13.096;2023-04-24T09:40:14;1.23;;;0.60;;
8663;SDS011;4369;47.842;13.096;2023-04-24T09:42:45;2.23;;;1.00;;
8663;SDS011;4369;47.842;13.096;2023-04-24T09:45:18;0.80;;;0.80;;
8663;SDS011;4369;47.842;13.096;2023-04-24T09:47:45;1.30;;;0.83;;
8663;SDS011;4369;47.842;13.096;2023-04-24T09:50:17;1.97;;;0.80;;
8663;SDS011;4369;47.842;13.096;2023-04-24T09:52:44;2.13;;;0.60;;
8663;SDS011;4369;47.842;13.096;2023-04-24T09:55:15;1.50;;;1.40;;
8663;SDS011;4369;47.842;13.096;2023-04-24T09:57:48;3.63;;;0.70;;
8663;SDS011;4369;47.842;13.096;2023-04-24T10:00:21;3.20;;;1.00;;
8663;SDS011;4369;47.842;13.096;2023-04-24T10:02:57;1.77;;;0.67;;
8663;SDS011;4369;47.842;13.096;2023-04-24T10:05:26;0.53;;;0.40;;
8663;SDS011;4369;47.842;13.096;2023-04-24T10:07:56;1.40;;;0.53;;
8663;SDS011;4369;47.842;13.096;2023-04-24T10:10:25;1.00;;;0.80;;
8663;SDS011;4369;47.842;13.096;2023-04-24T10:12:52;1.27;;;0.90;;
8663;SDS011;4369;47.842;13.096;2023-04-24T10:15:20;0.80;;;0.80;;
8663;SDS011;4369;47.842;13.096;2023-04-24T10:17:48;2.00;;;1.00;;
8663;SDS011;4369;47.842;13.096;2023-04-24T10:20:18;0.80;;;0.80;;
8663;SDS011;4369;47.842;13.096;2023-04-24T10:22:46;1.00;;;0.70;;
8663;SDS011;4369;47.842;13.096;2023-04-24T10:25:16;0.85;;;0.60;;
8663;SDS011;4369;47.842;13.096;2023-04-24T10:27:46;0.50;;;0.50;;
8663;SDS011;4369;47.842;13.096;2023-04-24T10:30:14;1.77;;;0.77;;
8663;SDS011;4369;47.842;13.096;2023-04-24T10:32:41;1.17;;;0.60;;
8663;SDS011;4369;47.842;13.096;2023-04-24T10:35:09;0.73;;;0.63;;
8663;SDS011;4369;47.842;13.096;2023-04-24T10:37:38;1.20;;;0.50;;
8663;SDS011;4369;47.842;13.096;2023-04-24T10:40:08;1.60;;;0.80;;
8663;SDS011;4369;47.842;13.096;2023-04-24T10:42:39;0.80;;;0.80;;
8663;SDS011;4369;47.842;13.096;2023-04-24T10:45:17;1.20;;;1.10;;
8663;SDS011;4369;47.842;13.096;2023-04-24T10:47:59;1.33;;;0.90;;
8663;SDS011;4369;47.842;13.096;2023-04-24T10:50:28;2.20;;;1.07;;
8663;SDS011;4369;47.842;13.096;2023-04-24T10:53:04;1.10;;;1.10;;
8663;SDS011;4369;47.842;13.096;2023-04-24T10:55:42;1.33;;;1.20;;
8663;SDS011;4369;47.842;13.096;2023-04-24T10:58:10;2.20;;;1.20;;
8663;SDS011;4369;47.842;13.096;2023-04-24T11:00:39;1.30;;;1.20;;
8663;SDS011;4369;47.842;13.096;2023-04-24T11:03:22;2.50;;;1.17;;
8663;SDS011;4369;47.842;13.096;2023-04-24T11:05:51;2.37;;;1.10;;
8663;SDS011;4369;47.842;13.096;2023-04-24T11:08:27;1.63;;;1.00;;
8663;SDS011;4369;47.842;13.096;2023-04-24T11:11:08;1.10;;;0.80;;
8663;SDS011;4369;47.842;13.096;2023-04-24T11:16:34;2.30;;;1.30;;
8663;SDS011;4369;47.842;13.096;2023-04-24T11:19:05;1.10;;;1.10;;
8663;SDS011;4369;47.842;13.096;2023-04-24T11:21:40;1.20;;;1.20;;
8663;SDS011;4369;47.842;13.096;2023-04-24T11:27:07;2.23;;;1.63;;
8663;SDS011;4369;47.842;13.096;2023-04-24T11:29:43;2.53;;;1.40;;
8663;SDS011;4369;47.842;13.096;2023-04-24T11:32:27;1.87;;;1.47;;
8663;SDS011;4369;47.842;13.096;2023-04-24T11:34:55;1.53;;;1.43;;
8663;SDS011;4369;47.842;13.096;2023-04-24T11:37:23;1.17;;;1.07;;
8663;SDS011;4369;47.842;13.096;2023-04-24T11:39:53;1.67;;;1.30;;
8663;SDS011;4369;47.842;13.096;2023-04-24T11:42:21;1.23;;;1.13;;
8663;SDS011;4369;47.842;13.096;2023-04-24T11:44:49;1.33;;;1.23;;
8663;SDS011;4369;47.842;13.096;2023-04-24T11:47:16;1.20;;;1.10;;
8663;SDS011;4369;47.842;13.096;2023-04-24T11:49:44;2.47;;;1.40;;
8663;SDS011;4369;47.842;13.096;2023-04-24T11:52:11;1.67;;;1.40;;
8663;SDS011;4369;47.842;13.096;2023-04-24T11:54:46;1.67;;;1.50;;
8663;SDS011;4369;47.842;13.096;2023-04-24T11:57:14;1.80;;;1.30;;
8663;SDS011;4369;47.842;13.096;2023-04-24T11:59:41;2.00;;;1.30;;
8663;SDS011;4369;47.842;13.096;2023-04-24T12:02:07;1.40;;;1.40;;
8663;SDS011;4369;47.842;13.096;2023-04-24T12:04:38;1.60;;;1.50;;
8663;SDS011;4369;47.842;13.096;2023-04-24T12:07:07;1.80;;;1.70;;
8663;SDS011;4369;47.842;13.096;2023-04-24T12:09:41;1.50;;;1.40;;
8663;SDS011;4369;47.842;13.096;2023-04-24T12:12:08;1.77;;;1.43;;
8663;SDS011;4369;47.842;13.096;2023-04-24T12:14:41;2.67;;;1.67;;
8663;SDS011;4369;47.842;13.096;2023-04-24T12:17:13;1.37;;;1.27;;
8663;SDS011;4369;47.842;13.096;2023-04-24T12:19:44;1.60;;;1.50;;
8663;SDS011;4369;47.842;13.096;2023-04-24T12:22:14;1.50;;;1.40;;
8663;SDS011;4369;47.842;13.096;2023-04-24T12:24:57;2.10;;;1.60;;
8663;SDS011;4369;47.842;13.096;2023-04-24T12:27:25;1.47;;;1.40;;
8663;SDS011;4369;47.842;13.096;2023-04-24T12:29:55;1.73;;;1.63;;
8663;SDS011;4369;47.842;13.096;2023-04-24T12:32:23;1.20;;;1.10;;
8663;SDS011;4369;47.842;13.096;2023-04-24T12:34:51;1.40;;;1.30;;
8663;SDS011;4369;47.842;13.096;2023-04-24T12:37:19;2.10;;;1.40;;
8663;SDS011;4369;47.842;13.096;2023-04-24T12:39:59;1.40;;;1.30;;
8663;SDS011;4369;47.842;13.096;2023-04-24T12:42:28;1.37;;;1.27;;
8663;SDS011;4369;47.842;13.096;2023-04-24T12:44:56;2.00;;;1.20;;
8663;SDS011;4369;47.842;13.096;2023-04-24T12:47:24;1.13;;;1.13;;
8663;SDS011;4369;47.842;13.096;2023-04-24T12:49:51;1.70;;;1.60;;
8663;SDS011;4369;47.842;13.096;2023-04-24T12:52:21;1.80;;;1.60;;
8663;SDS011;4369;47.842;13.096;2023-04-24T12:54:49;1.77;;;1.60;;
8663;SDS011;4369;47.842;13.096;2023-04-24T12:57:16;1.40;;;1.30;;
8663;SDS011;4369;47.842;13.096;2023-04-24T12:59:43;1.30;;;1.30;;
8663;SDS011;4369;47.842;13.096;2023-04-24T13:02:10;1.60;;;1.50;;
8663;SDS011;4369;47.842;13.096;2023-04-24T13:04:38;1.43;;;1.33;;
8663;SDS011;4369;47.842;13.096;2023-04-24T13:07:05;1.60;;;1.50;;
8663;SDS011;4369;47.842;13.096;2023-04-24T13:09:33;1.50;;;1.40;;
8663;SDS011;4369;47.842;13.096;2023-04-24T13:12:00;2.17;;;1.57;;
8663;SDS011;4369;47.842;13.096;2023-04-24T13:14:27;1.73;;;1.50;;
8663;SDS011;4369;47.842;13.096;2023-04-24T13:16:55;4.47;;;1.70;;
8663;SDS011;4369;47.842;13.096;2023-04-24T13:19:23;2.20;;;1.77;;
8663;SDS011;4369;47.842;13.096;2023-04-24T13:21:51;1.40;;;1.30;;
8663;SDS011;4369;47.842;13.096;2023-04-24T13:24:18;1.50;;;1.40;;
8663;SDS011;4369;47.842;13.096;2023-04-24T13:26:46;1.40;;;1.30;;
8663;SDS011;4369;47.842;13.096;2023-04-24T13:29:13;2.03;;;1.40;;
8663;SDS011;4369;47.842;13.096;2023-04-24T13:31:40;2.20;;;1.30;;
8663;SDS011;4369;47.842;13.096;2023-04-24T13:34:07;1.40;;;1.30;;
8663;SDS011;4369;47.842;13.096;2023-04-24T13:36:34;1.20;;;1.10;;
8663;SDS011;4369;47.842;13.096;2023-04-24T13:39:01;1.33;;;1.20;;
8663;SDS011;4369;47.842;13.096;2023-04-24T13:41:29;1.40;;;1.30;;
8663;SDS011;4369;47.842;13.096;2023-04-24T13:43:57;1.20;;;1.13;;
8663;SDS011;4369;47.842;13.096;2023-04-24T13:46:24;1.13;;;1.10;;
8663;SDS011;4369;47.842;13.096;2023-04-24T13:48:51;1.47;;;1.37;;
8663;SDS011;4369;47.842;13.096;2023-04-24T13:51:18;3.83;;;1.43;;
8663;SDS011;4369;47.842;13.096;2023-04-24T13:53:45;1.00;;;1.00;;
8663;SDS011;4369;47.842;13.096;2023-04-24T13:56:12;1.20;;;1.20;;
8663;SDS011;4369;47.842;13.096;2023-04-24T13:58:39;1.90;;;1.27;;
8663;SDS011;4369;47.842;13.096;2023-04-24T14:01:07;1.13;;;1.00;;
8663;SDS011;4369;47.842;13.096;2023-04-24T14:03:35;1.00;;;1.00;;
8663;SDS011;4369;47.842;13.096;2023-04-24T14:06:04;1.20;;;1.10;;
8663;SDS011;4369;47.842;13.096;2023-04-24T14:08:31;1.77;;;1.37;;
8663;SDS011;4369;47.842;13.096;2023-04-24T14:10:58;1.60;;;1.47;;
8663;SDS011;4369;47.842;13.096;2023-04-24T14:13:25;2.30;;;1.20;;
8663;SDS011;4369;47.842;13.096;2023-04-24T14:15:52;3.77;;;1.53;;
8663;SDS011;4369;47.842;13.096;2023-04-24T14:18:21;1.57;;;1.47;;
8663;SDS011;4369;47.842;13.096;2023-04-24T14:20:48;1.70;;;1.60;;
8663;SDS011;4369;47.842;13.096;2023-04-24T14:23:15;1.50;;;1.40;;
8663;SDS011;4369;47.842;13.096;2023-04-24T14:25:43;2.83;;;1.70;;
8663;SDS011;4369;47.842;13.096;2023-04-24T14:28:10;3.43;;;1.47;;
8663;SDS011;4369;47.842;13.096;2023-04-24T14:30:37;1.40;;;1.30;;
8663;SDS011;4369;47.842;13.096;2023-04-24T14:33:05;2.20;;;2.03;;
8663;SDS011;4369;47.842;13.096;2023-04-24T14:35:34;1.10;;;1.10;;
8663;SDS011;4369;47.842;13.096;2023-04-24T14:38:00;1.40;;;1.30;;
8663;SDS011;4369;47.842;13.096;2023-04-24T14:40:27;2.30;;;1.87;;
8663;SDS011;4369;47.842;13.096;2023-04-24T14:42:54;1.50;;;1.40;;
8663;SDS011;4369;47.842;13.096;2023-04-24T14:45:23;1.70;;;1.60;;
8663;SDS011;4369;47.842;13.096;2023-04-24T14:47:50;2.07;;;1.67;;
8663;SDS011;4369;47.842;13.096;2023-04-24T14:50:16;1.60;;;1.50;;
8663;SDS011;4369;47.842;13.096;2023-04-24T14:52:45;1.97;;;1.70;;
8663;SDS011;4369;47.842;13.096;2023-04-24T14:55:12;2.40;;;1.65;;
8663;SDS011;4369;47.842;13.096;2023-04-24T14:57:40;1.60;;;1.50;;
8663;SDS011;4369;47.842;13.096;2023-04-24T15:00:07;2.13;;;1.93;;
8663;SDS011;4369;47.842;13.096;2023-04-24T15:02:35;1.80;;;1.50;;
8663;SDS011;4369;47.842;13.096;2023-04-24T15:05:05;1.90;;;1.70;;
8663;SDS011;4369;47.842;13.096;2023-04-24T15:07:33;1.70;;;1.60;;
8663;SDS011;4369;47.842;13.096;2023-04-24T15:10:02;2.23;;;2.03;;
8663;SDS011;4369;47.842;13.096;2023-04-24T15:12:29;2.57;;;1.80;;